<?xml version="1.0" encoding="UTF-8" standalone="no" ?>
<gpx xmlns="http://www.topografix.com/GPX/1/1" xmlns:xsi="http://www.w3.org/2001/XMLSchema-instance" xsi:schemaLocation="http://www.topografix.com/GPX/1/1 http://www.topografix.com/GPX/1/1/gpx.xsd" version="1.1" creator="VisuGPX - https://www.visugpx.com">
  <metadata>
    <name>rando saillans 10 km</name>
    <desc><![CDATA[très sympathique rando et agréable entre vigne et bois]]></desc>
  </metadata>
  <trk>
    <name><![CDATA[rando saillans 10 km]]></name>
    <trkseg>
      <trkpt lat="44.95849" lon="-0.27449">
        <ele>51</ele>
        <time>2017-06-26T07:50:43Z</time>
      </trkpt>
      <trkpt lat="44.95845" lon="-0.27481">
        <ele>51</ele>
        <time>2017-06-26T07:50:48Z</time>
      </trkpt>
      <trkpt lat="44.95832" lon="-0.27492">
        <ele>50</ele>
        <time>2017-06-26T07:50:53Z</time>
      </trkpt>
      <trkpt lat="44.95818" lon="-0.27502">
        <ele>48</ele>
        <time>2017-06-26T07:50:58Z</time>
      </trkpt>
      <trkpt lat="44.95791" lon="-0.27439">
        <ele>46</ele>
        <time>2017-06-26T07:51:03Z</time>
      </trkpt>
      <trkpt lat="44.95773" lon="-0.27394">
        <ele>44</ele>
        <time>2017-06-26T07:51:08Z</time>
      </trkpt>
      <trkpt lat="44.95768" lon="-0.27385">
        <ele>42</ele>
        <time>2017-06-26T07:51:13Z</time>
      </trkpt>
      <trkpt lat="44.95762" lon="-0.27393">
        <ele>42</ele>
        <time>2017-06-26T07:51:18Z</time>
      </trkpt>
      <trkpt lat="44.95754" lon="-0.27397">
        <ele>42</ele>
        <time>2017-06-26T07:51:23Z</time>
      </trkpt>
      <trkpt lat="44.95747" lon="-0.27393">
        <ele>41</ele>
        <time>2017-06-26T07:51:28Z</time>
      </trkpt>
      <trkpt lat="44.95739" lon="-0.27391">
        <ele>39</ele>
        <time>2017-06-26T07:51:33Z</time>
      </trkpt>
      <trkpt lat="44.95735" lon="-0.27383">
        <ele>38</ele>
        <time>2017-06-26T07:51:38Z</time>
      </trkpt>
      <trkpt lat="44.95723" lon="-0.27374">
        <ele>36</ele>
        <time>2017-06-26T07:51:43Z</time>
      </trkpt>
      <trkpt lat="44.95686" lon="-0.27398">
        <ele>33</ele>
        <time>2017-06-26T07:51:48Z</time>
      </trkpt>
      <trkpt lat="44.95629" lon="-0.2744">
        <ele>31</ele>
        <time>2017-06-26T07:51:53Z</time>
      </trkpt>
      <trkpt lat="44.95599" lon="-0.27404">
        <ele>28</ele>
        <time>2017-06-26T07:51:58Z</time>
      </trkpt>
      <trkpt lat="44.95569" lon="-0.27369">
        <ele>27</ele>
        <time>2017-06-26T07:52:03Z</time>
      </trkpt>
      <trkpt lat="44.95547" lon="-0.27329">
        <ele>26</ele>
        <time>2017-06-26T07:52:08Z</time>
      </trkpt>
      <trkpt lat="44.95535" lon="-0.2728">
        <ele>24</ele>
        <time>2017-06-26T07:52:13Z</time>
      </trkpt>
      <trkpt lat="44.95545" lon="-0.27211">
        <ele>21</ele>
        <time>2017-06-26T07:52:18Z</time>
      </trkpt>
      <trkpt lat="44.9555" lon="-0.27143">
        <ele>18</ele>
        <time>2017-06-26T07:52:23Z</time>
      </trkpt>
      <trkpt lat="44.95562" lon="-0.27036">
        <ele>12</ele>
        <time>2017-06-26T07:52:28Z</time>
      </trkpt>
      <trkpt lat="44.95574" lon="-0.26978">
        <ele>10</ele>
        <time>2017-06-26T07:52:33Z</time>
      </trkpt>
      <trkpt lat="44.95581" lon="-0.26937">
        <ele>10</ele>
        <time>2017-06-26T07:52:38Z</time>
      </trkpt>
      <trkpt lat="44.95569" lon="-0.26913">
        <ele>9</ele>
        <time>2017-06-26T07:52:43Z</time>
      </trkpt>
      <trkpt lat="44.95541" lon="-0.26926">
        <ele>8</ele>
        <time>2017-06-26T07:52:48Z</time>
      </trkpt>
      <trkpt lat="44.95514" lon="-0.26945">
        <ele>7</ele>
        <time>2017-06-26T07:52:53Z</time>
      </trkpt>
      <trkpt lat="44.95484" lon="-0.26966">
        <ele>8</ele>
        <time>2017-06-26T07:52:58Z</time>
      </trkpt>
      <trkpt lat="44.95453" lon="-0.2698">
        <ele>9</ele>
        <time>2017-06-26T07:53:03Z</time>
      </trkpt>
      <trkpt lat="44.9542" lon="-0.26999">
        <ele>10</ele>
        <time>2017-06-26T07:53:08Z</time>
      </trkpt>
      <trkpt lat="44.95389" lon="-0.27008">
        <ele>12</ele>
        <time>2017-06-26T07:53:13Z</time>
      </trkpt>
      <trkpt lat="44.9532" lon="-0.27017">
        <ele>15</ele>
        <time>2017-06-26T07:53:18Z</time>
      </trkpt>
      <trkpt lat="44.95251" lon="-0.27027">
        <ele>13</ele>
        <time>2017-06-26T07:53:23Z</time>
      </trkpt>
      <trkpt lat="44.95224" lon="-0.27029">
        <ele>11</ele>
        <time>2017-06-26T07:53:28Z</time>
      </trkpt>
      <trkpt lat="44.9521" lon="-0.2703">
        <ele>11</ele>
        <time>2017-06-26T07:53:33Z</time>
      </trkpt>
      <trkpt lat="44.95201" lon="-0.27035">
        <ele>11</ele>
        <time>2017-06-26T07:53:38Z</time>
      </trkpt>
      <trkpt lat="44.95192" lon="-0.27058">
        <ele>12</ele>
        <time>2017-06-26T07:53:43Z</time>
      </trkpt>
      <trkpt lat="44.9515" lon="-0.27082">
        <ele>12</ele>
        <time>2017-06-26T07:53:48Z</time>
      </trkpt>
      <trkpt lat="44.9513" lon="-0.27154">
        <ele>16</ele>
        <time>2017-06-26T07:53:53Z</time>
      </trkpt>
      <trkpt lat="44.95104" lon="-0.27209">
        <ele>17</ele>
        <time>2017-06-26T07:53:58Z</time>
      </trkpt>
      <trkpt lat="44.95059" lon="-0.27304">
        <ele>20</ele>
        <time>2017-06-26T07:54:03Z</time>
      </trkpt>
      <trkpt lat="44.95035" lon="-0.27358">
        <ele>22</ele>
        <time>2017-06-26T07:54:08Z</time>
      </trkpt>
      <trkpt lat="44.95032" lon="-0.27368">
        <ele>22</ele>
        <time>2017-06-26T07:54:13Z</time>
      </trkpt>
      <trkpt lat="44.95018" lon="-0.27375">
        <ele>24</ele>
        <time>2017-06-26T07:54:18Z</time>
      </trkpt>
      <trkpt lat="44.94993" lon="-0.27389">
        <ele>26</ele>
        <time>2017-06-26T07:54:23Z</time>
      </trkpt>
      <trkpt lat="44.94969" lon="-0.27407">
        <ele>29</ele>
        <time>2017-06-26T07:54:28Z</time>
      </trkpt>
      <trkpt lat="44.94944" lon="-0.27433">
        <ele>33</ele>
        <time>2017-06-26T07:54:33Z</time>
      </trkpt>
      <trkpt lat="44.94923" lon="-0.27463">
        <ele>37</ele>
        <time>2017-06-26T07:54:38Z</time>
      </trkpt>
      <trkpt lat="44.94888" lon="-0.27514">
        <ele>41</ele>
        <time>2017-06-26T07:54:43Z</time>
      </trkpt>
      <trkpt lat="44.94846" lon="-0.27568">
        <ele>40</ele>
        <time>2017-06-26T07:54:48Z</time>
      </trkpt>
      <trkpt lat="44.94871" lon="-0.27615">
        <ele>40</ele>
        <time>2017-06-26T07:54:53Z</time>
      </trkpt>
      <trkpt lat="44.94892" lon="-0.27664">
        <ele>41</ele>
        <time>2017-06-26T07:54:58Z</time>
      </trkpt>
      <trkpt lat="44.949" lon="-0.27698">
        <ele>44</ele>
        <time>2017-06-26T07:55:03Z</time>
      </trkpt>
      <trkpt lat="44.94906" lon="-0.2773">
        <ele>47</ele>
        <time>2017-06-26T07:55:08Z</time>
      </trkpt>
      <trkpt lat="44.94923" lon="-0.27786">
        <ele>52</ele>
        <time>2017-06-26T07:55:13Z</time>
      </trkpt>
      <trkpt lat="44.94929" lon="-0.27819">
        <ele>55</ele>
        <time>2017-06-26T07:55:18Z</time>
      </trkpt>
      <trkpt lat="44.94926" lon="-0.27864">
        <ele>60</ele>
        <time>2017-06-26T07:55:23Z</time>
      </trkpt>
      <trkpt lat="44.94926" lon="-0.27892">
        <ele>62</ele>
        <time>2017-06-26T07:55:28Z</time>
      </trkpt>
      <trkpt lat="44.94947" lon="-0.27927">
        <ele>65</ele>
        <time>2017-06-26T07:55:33Z</time>
      </trkpt>
      <trkpt lat="44.94959" lon="-0.27949">
        <ele>66</ele>
        <time>2017-06-26T07:55:38Z</time>
      </trkpt>
      <trkpt lat="44.94971" lon="-0.27966">
        <ele>67</ele>
        <time>2017-06-26T07:55:43Z</time>
      </trkpt>
      <trkpt lat="44.94988" lon="-0.27985">
        <ele>69</ele>
        <time>2017-06-26T07:55:48Z</time>
      </trkpt>
      <trkpt lat="44.95008" lon="-0.28018">
        <ele>71</ele>
        <time>2017-06-26T07:55:53Z</time>
      </trkpt>
      <trkpt lat="44.95023" lon="-0.28039">
        <ele>73</ele>
        <time>2017-06-26T07:55:58Z</time>
      </trkpt>
      <trkpt lat="44.95038" lon="-0.28057">
        <ele>74</ele>
        <time>2017-06-26T07:56:03Z</time>
      </trkpt>
      <trkpt lat="44.95103" lon="-0.28149">
        <ele>77</ele>
        <time>2017-06-26T07:56:08Z</time>
      </trkpt>
      <trkpt lat="44.95135" lon="-0.28198">
        <ele>78</ele>
        <time>2017-06-26T07:56:13Z</time>
      </trkpt>
      <trkpt lat="44.95167" lon="-0.28246">
        <ele>78</ele>
        <time>2017-06-26T07:56:18Z</time>
      </trkpt>
      <trkpt lat="44.95087" lon="-0.28342">
        <ele>80</ele>
        <time>2017-06-26T07:56:23Z</time>
      </trkpt>
      <trkpt lat="44.95154" lon="-0.28503">
        <ele>84</ele>
        <time>2017-06-26T07:56:28Z</time>
      </trkpt>
      <trkpt lat="44.9518" lon="-0.28503">
        <ele>84</ele>
        <time>2017-06-26T07:56:33Z</time>
      </trkpt>
      <trkpt lat="44.95202" lon="-0.28499">
        <ele>83</ele>
        <time>2017-06-26T07:56:38Z</time>
      </trkpt>
      <trkpt lat="44.95219" lon="-0.28501">
        <ele>82</ele>
        <time>2017-06-26T07:56:43Z</time>
      </trkpt>
      <trkpt lat="44.95227" lon="-0.28521">
        <ele>82</ele>
        <time>2017-06-26T07:56:48Z</time>
      </trkpt>
      <trkpt lat="44.95229" lon="-0.28543">
        <ele>82</ele>
        <time>2017-06-26T07:56:53Z</time>
      </trkpt>
      <trkpt lat="44.95255" lon="-0.28672">
        <ele>82</ele>
        <time>2017-06-26T07:56:58Z</time>
      </trkpt>
      <trkpt lat="44.95267" lon="-0.2874">
        <ele>83</ele>
        <time>2017-06-26T07:57:03Z</time>
      </trkpt>
      <trkpt lat="44.95275" lon="-0.28775">
        <ele>84</ele>
        <time>2017-06-26T07:57:08Z</time>
      </trkpt>
      <trkpt lat="44.95286" lon="-0.28781">
        <ele>84</ele>
        <time>2017-06-26T07:57:13Z</time>
      </trkpt>
      <trkpt lat="44.95292" lon="-0.28816">
        <ele>85</ele>
        <time>2017-06-26T07:57:18Z</time>
      </trkpt>
      <trkpt lat="44.95305" lon="-0.28847">
        <ele>84</ele>
        <time>2017-06-26T07:57:23Z</time>
      </trkpt>
      <trkpt lat="44.95313" lon="-0.28882">
        <ele>81</ele>
        <time>2017-06-26T07:57:28Z</time>
      </trkpt>
      <trkpt lat="44.95312" lon="-0.28916">
        <ele>79</ele>
        <time>2017-06-26T07:57:33Z</time>
      </trkpt>
      <trkpt lat="44.95277" lon="-0.28952">
        <ele>78</ele>
        <time>2017-06-26T07:57:38Z</time>
      </trkpt>
      <trkpt lat="44.95234" lon="-0.2899">
        <ele>80</ele>
        <time>2017-06-26T07:57:43Z</time>
      </trkpt>
      <trkpt lat="44.95226" lon="-0.29004">
        <ele>80</ele>
        <time>2017-06-26T07:57:48Z</time>
      </trkpt>
      <trkpt lat="44.95225" lon="-0.29026">
        <ele>79</ele>
        <time>2017-06-26T07:57:53Z</time>
      </trkpt>
      <trkpt lat="44.95222" lon="-0.2911">
        <ele>74</ele>
        <time>2017-06-26T07:57:58Z</time>
      </trkpt>
      <trkpt lat="44.95225" lon="-0.29179">
        <ele>73</ele>
        <time>2017-06-26T07:58:03Z</time>
      </trkpt>
      <trkpt lat="44.95237" lon="-0.29211">
        <ele>72</ele>
        <time>2017-06-26T07:58:08Z</time>
      </trkpt>
      <trkpt lat="44.95269" lon="-0.29228">
        <ele>68</ele>
        <time>2017-06-26T07:58:13Z</time>
      </trkpt>
      <trkpt lat="44.953" lon="-0.29228">
        <ele>62</ele>
        <time>2017-06-26T07:58:18Z</time>
      </trkpt>
      <trkpt lat="44.95389" lon="-0.29186">
        <ele>53</ele>
        <time>2017-06-26T07:58:23Z</time>
      </trkpt>
      <trkpt lat="44.95426" lon="-0.2917">
        <ele>51</ele>
        <time>2017-06-26T07:58:28Z</time>
      </trkpt>
      <trkpt lat="44.95432" lon="-0.29188">
        <ele>51</ele>
        <time>2017-06-26T07:58:33Z</time>
      </trkpt>
      <trkpt lat="44.95462" lon="-0.2931">
        <ele>53</ele>
        <time>2017-06-26T07:58:38Z</time>
      </trkpt>
      <trkpt lat="44.95499" lon="-0.29414">
        <ele>56</ele>
        <time>2017-06-26T07:58:43Z</time>
      </trkpt>
      <trkpt lat="44.95523" lon="-0.29474">
        <ele>61</ele>
        <time>2017-06-26T07:58:48Z</time>
      </trkpt>
      <trkpt lat="44.95455" lon="-0.29523">
        <ele>63</ele>
        <time>2017-06-26T07:58:53Z</time>
      </trkpt>
      <trkpt lat="44.95432" lon="-0.29523">
        <ele>63</ele>
        <time>2017-06-26T07:58:58Z</time>
      </trkpt>
      <trkpt lat="44.95404" lon="-0.29525">
        <ele>65</ele>
        <time>2017-06-26T07:59:03Z</time>
      </trkpt>
      <trkpt lat="44.95388" lon="-0.29549">
        <ele>68</ele>
        <time>2017-06-26T07:59:08Z</time>
      </trkpt>
      <trkpt lat="44.95371" lon="-0.29598">
        <ele>72</ele>
        <time>2017-06-26T07:59:13Z</time>
      </trkpt>
      <trkpt lat="44.95365" lon="-0.29642">
        <ele>72</ele>
        <time>2017-06-26T07:59:18Z</time>
      </trkpt>
      <trkpt lat="44.95373" lon="-0.29672">
        <ele>71</ele>
        <time>2017-06-26T07:59:23Z</time>
      </trkpt>
      <trkpt lat="44.95396" lon="-0.29738">
        <ele>70</ele>
        <time>2017-06-26T07:59:28Z</time>
      </trkpt>
      <trkpt lat="44.95453" lon="-0.29871">
        <ele>66</ele>
        <time>2017-06-26T07:59:33Z</time>
      </trkpt>
      <trkpt lat="44.95469" lon="-0.29926">
        <ele>64</ele>
        <time>2017-06-26T07:59:38Z</time>
      </trkpt>
      <trkpt lat="44.9547" lon="-0.2998">
        <ele>61</ele>
        <time>2017-06-26T07:59:43Z</time>
      </trkpt>
      <trkpt lat="44.95475" lon="-0.30027">
        <ele>57</ele>
        <time>2017-06-26T07:59:48Z</time>
      </trkpt>
      <trkpt lat="44.95486" lon="-0.30053">
        <ele>54</ele>
        <time>2017-06-26T07:59:53Z</time>
      </trkpt>
      <trkpt lat="44.95499" lon="-0.30083">
        <ele>52</ele>
        <time>2017-06-26T07:59:58Z</time>
      </trkpt>
      <trkpt lat="44.95525" lon="-0.30051">
        <ele>52</ele>
        <time>2017-06-26T08:00:03Z</time>
      </trkpt>
      <trkpt lat="44.95551" lon="-0.29995">
        <ele>51</ele>
        <time>2017-06-26T08:00:08Z</time>
      </trkpt>
      <trkpt lat="44.95605" lon="-0.29944">
        <ele>49</ele>
        <time>2017-06-26T08:00:13Z</time>
      </trkpt>
      <trkpt lat="44.9561" lon="-0.29935">
        <ele>49</ele>
        <time>2017-06-26T08:00:18Z</time>
      </trkpt>
      <trkpt lat="44.95595" lon="-0.29878">
        <ele>51</ele>
        <time>2017-06-26T08:00:23Z</time>
      </trkpt>
      <trkpt lat="44.95611" lon="-0.29817">
        <ele>53</ele>
        <time>2017-06-26T08:00:28Z</time>
      </trkpt>
      <trkpt lat="44.95605" lon="-0.29786">
        <ele>54</ele>
        <time>2017-06-26T08:00:33Z</time>
      </trkpt>
      <trkpt lat="44.95697" lon="-0.29718">
        <ele>54</ele>
        <time>2017-06-26T08:00:38Z</time>
      </trkpt>
      <trkpt lat="44.95792" lon="-0.29657">
        <ele>54</ele>
        <time>2017-06-26T08:00:43Z</time>
      </trkpt>
      <trkpt lat="44.95796" lon="-0.29616">
        <ele>54</ele>
        <time>2017-06-26T08:00:48Z</time>
      </trkpt>
      <trkpt lat="44.95799" lon="-0.29571">
        <ele>54</ele>
        <time>2017-06-26T08:00:53Z</time>
      </trkpt>
      <trkpt lat="44.95754" lon="-0.29362">
        <ele>55</ele>
        <time>2017-06-26T08:00:58Z</time>
      </trkpt>
      <trkpt lat="44.95831" lon="-0.29319">
        <ele>55</ele>
        <time>2017-06-26T08:01:03Z</time>
      </trkpt>
      <trkpt lat="44.95869" lon="-0.29299">
        <ele>54</ele>
        <time>2017-06-26T08:01:08Z</time>
      </trkpt>
      <trkpt lat="44.95909" lon="-0.29284">
        <ele>54</ele>
        <time>2017-06-26T08:01:13Z</time>
      </trkpt>
      <trkpt lat="44.95953" lon="-0.29276">
        <ele>53</ele>
        <time>2017-06-26T08:01:18Z</time>
      </trkpt>
      <trkpt lat="44.95996" lon="-0.29272">
        <ele>52</ele>
        <time>2017-06-26T08:01:23Z</time>
      </trkpt>
      <trkpt lat="44.96005" lon="-0.29293">
        <ele>50</ele>
        <time>2017-06-26T08:01:28Z</time>
      </trkpt>
      <trkpt lat="44.9602" lon="-0.29305">
        <ele>49</ele>
        <time>2017-06-26T08:01:33Z</time>
      </trkpt>
      <trkpt lat="44.96069" lon="-0.29292">
        <ele>47</ele>
        <time>2017-06-26T08:01:38Z</time>
      </trkpt>
      <trkpt lat="44.96104" lon="-0.2928">
        <ele>46</ele>
        <time>2017-06-26T08:01:43Z</time>
      </trkpt>
      <trkpt lat="44.96089" lon="-0.29238">
        <ele>46</ele>
        <time>2017-06-26T08:01:48Z</time>
      </trkpt>
      <trkpt lat="44.96081" lon="-0.29178">
        <ele>45</ele>
        <time>2017-06-26T08:01:53Z</time>
      </trkpt>
      <trkpt lat="44.96072" lon="-0.29095">
        <ele>42</ele>
        <time>2017-06-26T08:01:58Z</time>
      </trkpt>
      <trkpt lat="44.9608" lon="-0.29093">
        <ele>42</ele>
        <time>2017-06-26T08:02:03Z</time>
      </trkpt>
      <trkpt lat="44.96073" lon="-0.28957">
        <ele>37</ele>
        <time>2017-06-26T08:02:08Z</time>
      </trkpt>
      <trkpt lat="44.96066" lon="-0.28917">
        <ele>37</ele>
        <time>2017-06-26T08:02:13Z</time>
      </trkpt>
      <trkpt lat="44.96045" lon="-0.28887">
        <ele>38</ele>
        <time>2017-06-26T08:02:18Z</time>
      </trkpt>
      <trkpt lat="44.96008" lon="-0.28871">
        <ele>41</ele>
        <time>2017-06-26T08:02:23Z</time>
      </trkpt>
      <trkpt lat="44.95988" lon="-0.28858">
        <ele>42</ele>
        <time>2017-06-26T08:02:28Z</time>
      </trkpt>
      <trkpt lat="44.95971" lon="-0.28838">
        <ele>43</ele>
        <time>2017-06-26T08:02:33Z</time>
      </trkpt>
      <trkpt lat="44.95957" lon="-0.28814">
        <ele>44</ele>
        <time>2017-06-26T08:02:38Z</time>
      </trkpt>
      <trkpt lat="44.95949" lon="-0.28781">
        <ele>44</ele>
        <time>2017-06-26T08:02:43Z</time>
      </trkpt>
      <trkpt lat="44.95944" lon="-0.28747">
        <ele>43</ele>
        <time>2017-06-26T08:02:48Z</time>
      </trkpt>
      <trkpt lat="44.9594" lon="-0.28711">
        <ele>45</ele>
        <time>2017-06-26T08:02:53Z</time>
      </trkpt>
      <trkpt lat="44.95932" lon="-0.28643">
        <ele>47</ele>
        <time>2017-06-26T08:02:58Z</time>
      </trkpt>
      <trkpt lat="44.95922" lon="-0.28568">
        <ele>48</ele>
        <time>2017-06-26T08:03:03Z</time>
      </trkpt>
      <trkpt lat="44.95908" lon="-0.2843">
        <ele>51</ele>
        <time>2017-06-26T08:03:08Z</time>
      </trkpt>
      <trkpt lat="44.95919" lon="-0.28434">
        <ele>51</ele>
        <time>2017-06-26T08:03:13Z</time>
      </trkpt>
      <trkpt lat="44.95945" lon="-0.28512">
        <ele>50</ele>
        <time>2017-06-26T08:03:18Z</time>
      </trkpt>
      <trkpt lat="44.95962" lon="-0.28543">
        <ele>50</ele>
        <time>2017-06-26T08:03:23Z</time>
      </trkpt>
      <trkpt lat="44.95994" lon="-0.2855">
        <ele>51</ele>
        <time>2017-06-26T08:03:28Z</time>
      </trkpt>
      <trkpt lat="44.96021" lon="-0.28571">
        <ele>48</ele>
        <time>2017-06-26T08:03:33Z</time>
      </trkpt>
      <trkpt lat="44.96036" lon="-0.28594">
        <ele>46</ele>
        <time>2017-06-26T08:03:38Z</time>
      </trkpt>
      <trkpt lat="44.96056" lon="-0.28612">
        <ele>43</ele>
        <time>2017-06-26T08:03:43Z</time>
      </trkpt>
      <trkpt lat="44.96073" lon="-0.28617">
        <ele>40</ele>
        <time>2017-06-26T08:03:48Z</time>
      </trkpt>
      <trkpt lat="44.96095" lon="-0.28614">
        <ele>37</ele>
        <time>2017-06-26T08:03:53Z</time>
      </trkpt>
      <trkpt lat="44.96106" lon="-0.2862">
        <ele>36</ele>
        <time>2017-06-26T08:03:58Z</time>
      </trkpt>
      <trkpt lat="44.96117" lon="-0.28628">
        <ele>36</ele>
        <time>2017-06-26T08:04:03Z</time>
      </trkpt>
      <trkpt lat="44.96136" lon="-0.28657">
        <ele>34</ele>
        <time>2017-06-26T08:04:08Z</time>
      </trkpt>
      <trkpt lat="44.96161" lon="-0.28668">
        <ele>33</ele>
        <time>2017-06-26T08:04:13Z</time>
      </trkpt>
      <trkpt lat="44.96189" lon="-0.28676">
        <ele>33</ele>
        <time>2017-06-26T08:04:18Z</time>
      </trkpt>
      <trkpt lat="44.96231" lon="-0.28684">
        <ele>35</ele>
        <time>2017-06-26T08:04:23Z</time>
      </trkpt>
      <trkpt lat="44.96279" lon="-0.28656">
        <ele>34</ele>
        <time>2017-06-26T08:04:28Z</time>
      </trkpt>
      <trkpt lat="44.96325" lon="-0.28646">
        <ele>35</ele>
        <time>2017-06-26T08:04:33Z</time>
      </trkpt>
      <trkpt lat="44.9637" lon="-0.28647">
        <ele>36</ele>
        <time>2017-06-26T08:04:38Z</time>
      </trkpt>
      <trkpt lat="44.96421" lon="-0.28627">
        <ele>36</ele>
        <time>2017-06-26T08:04:43Z</time>
      </trkpt>
      <trkpt lat="44.96457" lon="-0.28575">
        <ele>37</ele>
        <time>2017-06-26T08:04:48Z</time>
      </trkpt>
      <trkpt lat="44.96501" lon="-0.28477">
        <ele>35</ele>
        <time>2017-06-26T08:04:53Z</time>
      </trkpt>
      <trkpt lat="44.96564" lon="-0.28394">
        <ele>32</ele>
        <time>2017-06-26T08:04:58Z</time>
      </trkpt>
      <trkpt lat="44.96596" lon="-0.28351">
        <ele>28</ele>
        <time>2017-06-26T08:05:03Z</time>
      </trkpt>
      <trkpt lat="44.96634" lon="-0.28317">
        <ele>27</ele>
        <time>2017-06-26T08:05:08Z</time>
      </trkpt>
      <trkpt lat="44.96568" lon="-0.28223">
        <ele>30</ele>
        <time>2017-06-26T08:05:13Z</time>
      </trkpt>
      <trkpt lat="44.96533" lon="-0.28169">
        <ele>32</ele>
        <time>2017-06-26T08:05:18Z</time>
      </trkpt>
      <trkpt lat="44.96516" lon="-0.28141">
        <ele>32</ele>
        <time>2017-06-26T08:05:23Z</time>
      </trkpt>
      <trkpt lat="44.96503" lon="-0.28108">
        <ele>32</ele>
        <time>2017-06-26T08:05:28Z</time>
      </trkpt>
      <trkpt lat="44.96497" lon="-0.28083">
        <ele>32</ele>
        <time>2017-06-26T08:05:33Z</time>
      </trkpt>
      <trkpt lat="44.96496" lon="-0.28053">
        <ele>32</ele>
        <time>2017-06-26T08:05:38Z</time>
      </trkpt>
      <trkpt lat="44.96495" lon="-0.27988">
        <ele>31</ele>
        <time>2017-06-26T08:05:43Z</time>
      </trkpt>
      <trkpt lat="44.96488" lon="-0.27928">
        <ele>31</ele>
        <time>2017-06-26T08:05:48Z</time>
      </trkpt>
      <trkpt lat="44.96475" lon="-0.27862">
        <ele>31</ele>
        <time>2017-06-26T08:05:53Z</time>
      </trkpt>
      <trkpt lat="44.96476" lon="-0.27851">
        <ele>31</ele>
        <time>2017-06-26T08:05:58Z</time>
      </trkpt>
      <trkpt lat="44.96474" lon="-0.27798">
        <ele>30</ele>
        <time>2017-06-26T08:06:03Z</time>
      </trkpt>
      <trkpt lat="44.9646" lon="-0.27701">
        <ele>29</ele>
        <time>2017-06-26T08:06:08Z</time>
      </trkpt>
      <trkpt lat="44.96448" lon="-0.27617">
        <ele>28</ele>
        <time>2017-06-26T08:06:13Z</time>
      </trkpt>
      <trkpt lat="44.96434" lon="-0.27547">
        <ele>27</ele>
        <time>2017-06-26T08:06:18Z</time>
      </trkpt>
      <trkpt lat="44.96359" lon="-0.27585">
        <ele>38</ele>
        <time>2017-06-26T08:06:23Z</time>
      </trkpt>
      <trkpt lat="44.96323" lon="-0.27534">
        <ele>40</ele>
        <time>2017-06-26T08:06:28Z</time>
      </trkpt>
      <trkpt lat="44.96296" lon="-0.27489">
        <ele>42</ele>
        <time>2017-06-26T08:06:33Z</time>
      </trkpt>
      <trkpt lat="44.96254" lon="-0.27384">
        <ele>48</ele>
        <time>2017-06-26T08:06:38Z</time>
      </trkpt>
      <trkpt lat="44.96237" lon="-0.27326">
        <ele>50</ele>
        <time>2017-06-26T08:06:43Z</time>
      </trkpt>
      <trkpt lat="44.9623" lon="-0.273">
        <ele>50</ele>
        <time>2017-06-26T08:06:48Z</time>
      </trkpt>
      <trkpt lat="44.96221" lon="-0.27278">
        <ele>51</ele>
        <time>2017-06-26T08:06:53Z</time>
      </trkpt>
      <trkpt lat="44.9619" lon="-0.27318">
        <ele>52</ele>
        <time>2017-06-26T08:06:58Z</time>
      </trkpt>
      <trkpt lat="44.9615" lon="-0.27347">
        <ele>53</ele>
        <time>2017-06-26T08:07:03Z</time>
      </trkpt>
      <trkpt lat="44.96114" lon="-0.27387">
        <ele>54</ele>
        <time>2017-06-26T08:07:08Z</time>
      </trkpt>
      <trkpt lat="44.96081" lon="-0.27427">
        <ele>56</ele>
        <time>2017-06-26T08:07:13Z</time>
      </trkpt>
      <trkpt lat="44.96032" lon="-0.27539">
        <ele>59</ele>
        <time>2017-06-26T08:07:18Z</time>
      </trkpt>
      <trkpt lat="44.95959" lon="-0.27477">
        <ele>56</ele>
        <time>2017-06-26T08:07:23Z</time>
      </trkpt>
      <trkpt lat="44.95942" lon="-0.27464">
        <ele>55</ele>
        <time>2017-06-26T08:07:28Z</time>
      </trkpt>
      <trkpt lat="44.9592" lon="-0.27458">
        <ele>55</ele>
        <time>2017-06-26T08:07:33Z</time>
      </trkpt>
      <trkpt lat="44.95888" lon="-0.27446">
        <ele>53</ele>
        <time>2017-06-26T08:07:38Z</time>
      </trkpt>
      <trkpt lat="44.95864" lon="-0.27454">
        <ele>52</ele>
        <time>2017-06-26T08:07:43Z</time>
      </trkpt>
      <trkpt lat="44.95856" lon="-0.27465">
        <ele>52</ele>
        <time>2017-06-26T08:07:48Z</time>
      </trkpt>
      <trkpt lat="44.95851" lon="-0.27456">
        <ele>51</ele>
        <time>2017-06-26T08:07:53Z</time>
      </trkpt>
    </trkseg>
  </trk>
</gpx>